METAR Data
IDs: Format: Raw Decoded Include TAF

Data at: 1504 UTC 22 Apr 2021

METAR for:EDVE (Braunschweig Arpt, NI, DL)
Text:EDVE 221450Z 32013KT 290V350 9999 BKN049 10/M00 Q1022
Temperature: 10.0°C ( 50°F)
Dewpoint: 0.0°C ( 32°F) [RH = 50%]
Pressure (altimeter):30.18 inches Hg (1022.0 mb)
Winds:from the NW (320 degrees) at 15 MPH (13 knots; 6.7 m/s)
Visibility:6 or more sm (10+ km)
Ceiling:4900 feet AGL
Clouds: broken clouds at 4900 feet AGL